Time;durP1;ratioP1;P1;durP2;ratioP2;P2;SDS_P1;SDS_P2;PMS_P1;PMS_P2;Temp;Humidity;BMP_temperature;BMP_pressure;BME280_temperature;BME280_humidity;BME280_pressure;Samples;Min_cycle;Max_cycle;Signal;HPM_P1;HPM_P2
2021/05/13 00:01:24;;;;;;;19.95;5.10;;;;;;;31.55;62.68;100633.28;5059168;27;69359;-38
2021/05/13 00:03:55;;;;;;;12.40;5.30;;;;;;;31.61;62.69;100625.03;5058264;28;65810;-38
2021/05/13 00:06:26;;;;;;;24.30;5.43;;;;;;;31.57;63.94;100633.88;5060579;28;70069;-38
2021/05/13 00:08:56;;;;;;;18.67;5.15;;;;;;;31.66;64.19;100647.94;5057243;27;66261;-37
2021/05/13 00:11:34;;;;;;;28.52;6.10;;;;;;;31.56;64.64;100621.38;5052619;28;69146;-39
2021/05/13 00:14:06;;;;;;;11.20;5.82;;;;;;;31.41;64.13;100594.69;5054620;28;65768;-40
2021/05/13 00:16:38;;;;;;;14.85;5.55;;;;;;;31.70;64.30;100640.97;5057566;28;70212;-40
2021/05/13 00:19:11;;;;;;;13.23;5.00;;;;;;;31.15;64.28;100547.94;5064348;28;66082;-39
2021/05/13 00:21:43;;;;;;;9.55;5.85;;;;;;;31.79;64.47;100643.16;5059949;28;69750;-39
2021/05/13 00:24:14;;;;;;;;;;;;;;;31.79;64.18;100645.03;5057033;28;65608;-39
2021/05/13 00:26:48;;;;;;;11.82;4.53;;;;;;;31.87;64.17;100650.09;5056712;28;70273;-38
2021/05/13 00:29:26;;;;;;;21.67;4.75;;;;;;;31.92;63.39;100641.31;5059058;28;65437;-39
2021/05/13 00:31:57;;;;;;;16.50;5.10;;;;;;;32.05;63.12;100655.47;5059064;28;68996;-40
2021/05/13 00:34:28;;;;;;;19.02;5.50;;;;;;;32.12;63.17;100658.06;5051377;28;66147;-39
2021/05/13 00:36:58;;;;;;;17.23;6.03;;;;;;;32.17;63.18;100657.38;5056518;28;70098;-40
2021/05/13 00:39:29;;;;;;;12.70;5.25;;;;;;;32.25;63.07;100659.75;5060553;28;66471;-40
2021/05/13 00:41:59;;;;;;;18.52;5.60;;;;;;;32.26;62.81;100661.38;5061943;28;69233;-39
2021/05/13 00:44:34;;;;;;;16.73;6.00;;;;;;;32.03;62.52;100607.94;5059350;28;66049;-39
2021/05/13 00:47:05;;;;;;;14.40;5.65;;;;;;;32.33;62.33;100662.13;5058860;28;70122;-39
2021/05/13 00:49:35;;;;;;;16.73;6.22;;;;;;;32.24;62.25;100658.09;5058937;28;65897;-39
2021/05/13 00:52:10;;;;;;;5.68;5.00;;;;;;;32.22;61.97;100655.63;5049880;28;70105;-40
2021/05/13 00:54:41;;;;;;;9.60;5.07;;;;;;;32.27;62.02;100673.91;5054372;28;66820;-40
2021/05/13 00:57:15;;;;;;;6.15;5.55;;;;;;;32.33;61.87;100678.41;5059358;28;69168;-39
2021/05/13 00:59:48;;;;;;;7.72;5.70;;;;;;;32.38;62.02;100680.41;5052036;28;66187;-40
2021/05/13 01:02:19;;;;;;;11.95;5.60;;;;;;;32.43;61.71;100678.66;5056647;28;70122;-39
2021/05/13 01:04:50;;;;;;;9.05;5.97;;;;;;;32.41;62.18;100679.94;5050347;28;65762;-40
2021/05/13 01:07:21;;;;;;;10.60;5.67;;;;;;;32.45;62.54;100676.50;5052997;28;69345;-39
2021/05/13 01:09:51;;;;;;;15.32;5.50;;;;;;;32.46;62.43;100671.97;5055448;28;65887;-39
2021/05/13 01:12:21;;;;;;;8.27;5.85;;;;;;;32.57;61.89;100673.00;5049851;28;69114;-39
2021/05/13 01:14:53;;;;;;;9.25;6.15;;;;;;;32.60;61.56;100683.41;5053965;28;65205;-39
2021/05/13 01:17:38;;;;;;;11.38;6.38;;;;;;;32.60;61.86;100678.78;5053352;28;69969;-39
2021/05/13 01:20:09;;;;;;;8.57;5.95;;;;;;;32.70;61.67;100689.06;5055710;28;65170;-39
2021/05/13 01:22:39;;;;;;;9.52;6.60;;;;;;;32.67;61.75;100690.34;5054988;28;69834;-39
2021/05/13 01:25:10;;;;;;;7.25;6.28;;;;;;;32.70;61.70;100689.06;5054693;28;65296;-38
2021/05/13 01:27:41;;;;;;;13.67;6.80;;;;;;;32.70;62.01;100692.59;5054846;28;70044;-39
2021/05/13 01:30:14;;;;;;;10.88;7.18;;;;;;;32.75;61.45;100685.63;5052628;28;65199;-38
2021/05/13 01:32:46;;;;;;;8.93;6.55;;;;;;;32.76;61.51;100685.38;5051954;28;68887;-38
2021/05/13 01:35:17;;;;;;;13.60;6.43;;;;;;;32.72;61.59;100681.50;5055232;28;66319;-40
2021/05/13 01:37:59;;;;;;;12.70;7.22;;;;;;;32.81;61.73;100696.34;5054825;28;70544;-39
2021/05/13 01:40:30;;;;;;;7.57;6.13;;;;;;;32.81;61.49;100704.50;5055592;28;65474;-39
2021/05/13 01:43:04;;;;;;;14.60;7.22;;;;;;;32.82;61.50;100689.88;5055191;28;69779;-38
2021/05/13 01:45:35;;;;;;;20.70;8.07;;;;;;;32.86;61.21;100698.38;5049259;28;65117;-39
2021/05/13 01:48:10;;;;;;;11.00;7.65;;;;;;;32.86;61.22;100696.47;5057422;28;69837;-38
2021/05/13 01:50:51;;;;;;;8.30;7.53;;;;;;;32.67;61.39;100659.66;5051697;28;65889;-39
2021/05/13 01:53:23;;;;;;;12.38;8.00;;;;;;;32.84;61.40;100684.19;5055196;28;69649;-39
2021/05/13 01:55:57;;;;;;;13.77;8.30;;;;;;;32.85;61.16;100681.25;5055782;28;66297;-39
2021/05/13 01:58:33;;;;;;;10.07;8.02;;;;;;;32.92;61.08;100691.97;5049124;28;69691;-38
2021/05/13 02:01:06;;;;;;;14.80;7.72;;;;;;;32.90;61.10;100686.81;5056033;28;66193;-43
2021/05/13 02:03:38;;;;;;;12.02;7.90;;;;;;;32.97;61.02;100686.66;5053513;28;70482;-39
2021/05/13 02:06:09;;;;;;;;;;;;;;;32.98;61.06;100687.47;5053343;28;65329;-38
2021/05/13 02:08:46;;;;;;;11.25;7.65;;;;;;;33.07;60.59;100691.50;5053764;28;69983;-39
2021/05/13 02:11:18;;;;;;;9.70;8.30;;;;;;;33.11;60.54;100690.78;5052422;28;65314;-39
2021/05/13 02:13:49;;;;;;;10.27;7.20;;;;;;;33.06;60.54;100687.13;5052425;28;69975;-40
2021/05/13 02:16:20;;;;;;;8.77;7.90;;;;;;;33.15;60.48;100688.41;5055340;28;64900;-38
2021/05/13 02:18:51;;;;;;;11.02;8.05;;;;;;;33.18;60.34;100696.06;5056025;28;70316;-39
2021/05/13 02:21:23;;;;;;;8.55;7.72;;;;;;;33.21;60.03;100690.19;5052646;28;65921;-39
2021/05/13 02:23:54;;;;;;;23.33;8.07;;;;;;;33.25;60.21;100691.34;5052644;28;69893;-39
2021/05/13 02:26:25;;;;;;;;;;;;;;;33.21;60.37;100700.22;5057299;28;66148;-40
2021/05/13 02:29:06;;;;;;;9.20;7.82;;;;;;;33.28;60.03;100688.13;5053166;28;69960;-38
2021/05/13 02:31:37;;;;;;;10.53;7.53;;;;;;;33.32;59.99;100691.19;5051053;28;66871;-39
2021/05/13 02:34:17;;;;;;;8.70;7.53;;;;;;;33.36;59.91;100698.63;5054837;28;69739;-39
2021/05/13 02:36:48;;;;;;;8.25;7.45;;;;;;;33.38;59.90;100690.25;5054917;28;65299;-38
2021/05/13 02:39:21;;;;;;;8.93;7.30;;;;;;;33.43;59.91;100689.50;5052224;28;70020;-38
2021/05/13 02:41:52;;;;;;;8.57;7.53;;;;;;;33.40;59.96;100684.56;5051811;28;65061;-39
2021/05/13 02:44:25;;;;;;;11.27;7.22;;;;;;;33.51;59.87;100683.69;5049947;28;69389;-39
2021/05/13 02:46:59;;;;;;;8.23;7.28;;;;;;;33.50;59.49;100682.84;5052627;28;65896;-39
2021/05/13 02:49:30;;;;;;;9.60;7.07;;;;;;;33.57;59.86;100677.28;5051918;28;69641;-38
2021/05/13 02:52:04;;;;;;;7.93;7.10;;;;;;;33.61;59.58;100675.75;5051783;28;65622;-38
2021/05/13 02:54:36;;;;;;;8.48;6.85;;;;;;;33.60;59.53;100676.84;5053439;28;70023;-39
2021/05/13 02:57:08;;;;;;;7.90;7.20;;;;;;;33.67;59.42;100676.66;5053092;28;65729;-39
2021/05/13 02:59:44;;;;;;;9.65;7.68;;;;;;;33.68;59.37;100667.44;5046413;28;70281;-39
2021/05/13 03:02:17;;;;;;;7.60;6.90;;;;;;;33.71;58.95;100667.78;5052188;28;66159;-38
2021/05/13 03:04:49;;;;;;;7.68;6.82;;;;;;;33.75;59.19;100663.50;5047263;28;70134;-39
2021/05/13 03:07:22;;;;;;;8.52;6.57;;;;;;;33.76;58.78;100670.56;5052919;28;66566;-38
2021/05/13 03:09:58;;;;;;;7.55;6.95;;;;;;;33.77;59.16;100666.81;5058781;28;68473;-38
2021/05/13 03:12:29;;;;;;;6.70;6.15;;;;;;;33.78;58.88;100660.28;5053586;28;65375;-38
2021/05/13 03:15:01;;;;;;;6.63;6.13;;;;;;;33.72;59.14;100644.94;5054396;28;69129;-39
2021/05/13 03:17:32;;;;;;;7.65;6.85;;;;;;;33.80;59.06;100649.97;5050098;28;65832;-38
2021/05/13 03:20:04;;;;;;;10.65;6.35;;;;;;;33.85;58.72;100656.56;5054121;28;69831;-38
2021/05/13 03:22:36;;;;;;;6.25;5.75;;;;;;;33.90;58.88;100653.94;5052920;28;66037;-39
2021/05/13 03:25:09;;;;;;;6.22;5.72;;;;;;;33.88;59.04;100656.06;5045789;28;69904;-38
2021/05/13 03:27:54;;;;;;;6.43;5.93;;;;;;;33.95;58.79;100651.31;5066109;27;65107;-38
2021/05/13 03:30:26;;;;;;;7.95;6.18;;;;;;;33.90;58.48;100640.34;5048988;28;69840;-39
2021/05/13 03:32:57;;;;;;;6.13;5.53;;;;;;;33.96;58.54;100647.50;5054122;28;67129;-38
2021/05/13 03:35:29;;;;;;;6.22;5.63;;;;;;;34.04;58.49;100649.81;5059640;27;70884;-39
2021/05/13 03:38:06;;;;;;;8.90;6.13;;;;;;;34.08;58.32;100637.41;5056528;28;65104;-38
2021/05/13 03:40:39;;;;;;;5.78;5.28;;;;;;;33.44;58.23;100528.03;5056861;28;70168;-38
2021/05/13 03:43:10;;;;;;;6.63;6.22;;;;;;;34.16;57.76;100644.34;5053748;28;65628;-38
2021/05/13 03:45:42;;;;;;;7.73;5.30;;;;;;;34.20;57.87;100643.56;5057757;28;70465;-39
2021/05/13 03:48:12;;;;;;;6.63;5.82;;;;;;;34.15;57.82;100624.44;5057493;28;66558;-39
2021/05/13 03:50:44;;;;;;;6.97;5.97;;;;;;;34.24;57.90;100628.41;5053244;28;69095;-38
2021/05/13 03:53:15;;;;;;;7.75;5.10;;;;;;;34.26;58.02;100628.13;5057213;28;64965;-39
2021/05/13 03:55:50;;;;;;;6.07;5.23;;;;;;;34.12;58.19;100592.28;5054110;28;70048;-39
2021/05/13 03:58:27;;;;;;;7.22;5.38;;;;;;;34.37;57.58;100632.66;5057515;28;65938;-38
2021/05/13 04:03:29;;;;;;;5.65;5.25;;;;;;;34.39;57.45;100618.81;5048456;28;66016;-39
2021/05/13 04:06:01;;;;;;;5.20;4.70;;;;;;;34.39;57.21;100607.91;5057478;28;68866;-39
2021/05/13 04:08:32;;;;;;;5.40;4.90;;;;;;;34.44;57.30;100619.69;5057655;28;65724;-39
2021/05/13 04:11:04;;;;;;;10.98;5.40;;;;;;;34.47;56.84;100624.66;5054904;28;69826;-38
2021/05/13 04:13:40;;;;;;;5.60;5.20;;;;;;;34.52;57.07;100618.47;5057455;28;65762;-38
2021/05/13 04:16:12;;;;;;;5.47;5.07;;;;;;;34.56;56.88;100625.06;5053835;28;69843;-38
2021/05/13 04:18:45;;;;;;;8.50;5.40;;;;;;;34.61;56.67;100616.97;5056818;28;66180;-38
2021/05/13 04:21:19;;;;;;;6.25;4.75;;;;;;;34.64;56.68;100615.63;5055915;28;69125;-38
2021/05/13 04:23:50;;;;;;;5.50;5.07;;;;;;;34.64;56.73;100627.34;5045521;28;66383;-38
2021/05/13 04:26:20;;;;;;;6.23;5.07;;;;;;;34.66;56.57;100619.75;5056341;28;70975;-38
2021/05/13 04:28:52;;;;;;;5.13;4.63;;;;;;;34.70;56.36;100611.91;5061046;28;66328;-38
2021/05/13 04:31:23;;;;;;;5.40;4.90;;;;;;;34.73;56.42;100613.28;5058143;28;69167;-38
2021/05/13 04:33:54;;;;;;;5.47;4.65;;;;;;;34.75;56.39;100619.31;5067177;27;65628;-38
2021/05/13 04:36:25;;;;;;;14.00;5.07;;;;;;;34.72;55.86;100617.94;5056265;28;70016;-38
2021/05/13 04:38:56;;;;;;;4.78;4.47;;;;;;;34.77;56.23;100620.72;5057394;28;66718;-38
2021/05/13 04:41:31;;;;;;;7.00;5.03;;;;;;;34.80;56.28;100613.91;5054018;28;70006;-38
2021/05/13 04:44:03;;;;;;;5.35;4.85;;;;;;;34.82;55.80;100607.13;5054722;28;65943;-39
2021/05/13 04:46:36;;;;;;;11.98;4.82;;;;;;;34.80;56.24;100601.13;5060189;28;70235;-38
2021/05/13 04:51:38;;;;;;;4.85;4.47;;;;;;;34.87;55.76;100598.22;5053118;28;70086;-38
2021/05/13 04:54:11;;;;;;;10.05;4.05;;;;;;;34.89;56.17;100598.78;5058443;28;66344;-39
2021/05/13 04:56:42;;;;;;;4.75;4.40;;;;;;;34.95;55.61;100599.66;5053163;28;70124;-39
2021/05/13 04:59:13;;;;;;;5.53;5.10;;;;;;;34.88;56.01;100587.06;5049258;28;66365;-39
2021/05/13 05:01:44;;;;;;;4.85;4.50;;;;;;;34.95;55.49;100583.31;5050575;28;69775;-38
2021/05/13 05:04:15;;;;;;;7.88;4.55;;;;;;;34.98;55.55;100575.44;5057234;28;65848;-39
2021/05/13 05:06:46;;;;;;;4.73;4.43;;;;;;;34.98;55.57;100567.25;5051251;28;70866;-39
2021/05/13 05:09:17;;;;;;;4.82;4.40;;;;;;;35.03;55.45;100559.16;5055230;28;65834;-39
2021/05/13 05:11:48;;;;;;;8.90;4.38;;;;;;;35.08;55.47;100566.59;5054365;28;68787;-41
2021/05/13 05:14:19;;;;;;;4.97;4.63;;;;;;;35.09;55.38;100557.34;5057556;28;66384;-38
2021/05/13 05:16:49;;;;;;;6.10;4.57;;;;;;;35.10;55.54;100548.06;5054805;28;70648;-39
2021/05/13 05:19:20;;;;;;;5.32;4.60;;;;;;;35.00;55.16;100521.50;5055632;28;65346;-39
2021/05/13 05:21:52;;;;;;;4.65;4.32;;;;;;;35.17;55.02;100542.41;5055381;28;69764;-43
2021/05/13 05:24:23;;;;;;;5.55;4.97;;;;;;;35.21;55.24;100549.00;5056135;28;65475;-39
2021/05/13 05:26:54;;;;;;;4.45;4.15;;;;;;;35.17;54.74;100528.78;5056104;28;70029;-38
2021/05/13 05:29:29;;;;;;;4.50;4.20;;;;;;;35.26;54.46;100530.78;5056622;28;65177;-39
2021/05/13 05:32:00;;;;;;;11.75;4.45;;;;;;;35.30;54.90;100528.34;5055897;28;69955;-39
2021/05/13 05:34:36;;;;;;;4.50;4.10;;;;;;;35.35;54.69;100523.78;5056280;28;66623;-38
2021/05/13 05:37:07;;;;;;;5.38;4.88;;;;;;;35.38;54.72;100525.16;5055272;28;69731;-38
2021/05/13 05:39:38;;;;;;;5.07;4.35;;;;;;;35.42;54.23;100507.19;5055567;28;65701;-38
2021/05/13 05:42:12;;;;;;;4.45;4.10;;;;;;;35.39;54.45;100502.25;5055560;28;70090;-38
2021/05/13 05:44:45;;;;;;;4.82;4.53;;;;;;;35.44;54.37;100487.81;5056449;28;66178;-39
2021/05/13 05:47:18;;;;;;;4.90;4.13;;;;;;;35.54;54.33;100494.19;5054352;28;70191;-39
2021/05/13 05:49:54;;;;;;;4.20;3.90;;;;;;;35.56;54.46;100481.16;5056261;28;66187;-39
2021/05/13 05:52:25;;;;;;;4.97;4.40;;;;;;;35.58;54.60;100476.25;5056611;28;69922;-39
2021/05/13 05:54:56;;;;;;;3.83;3.63;;;;;;;35.60;54.24;100483.34;5055333;28;66175;-38
2021/05/13 05:57:29;;;;;;;4.55;4.15;;;;;;;35.61;54.16;100482.25;5053695;28;69884;-41
2021/05/13 06:00:02;;;;;;;4.63;4.30;;;;;;;35.61;54.26;100482.25;5054882;28;65611;-39
2021/05/13 06:02:36;;;;;;;4.88;4.35;;;;;;;35.64;54.54;100470.84;5055481;28;69654;-39
2021/05/13 06:05:10;;;;;;;4.15;3.85;;;;;;;35.62;54.49;100443.00;5053697;28;66450;-39
2021/05/13 06:07:46;;;;;;;4.57;4.20;;;;;;;35.74;54.00;100449.06;5050754;28;70391;-39
2021/05/13 06:10:17;;;;;;;4.40;4.00;;;;;;;35.79;53.89;100440.91;5041193;28;65941;-38
2021/05/13 06:12:48;;;;;;;4.55;4.25;;;;;;;35.84;53.71;100438.22;5053231;28;70067;-39
2021/05/13 06:15:25;;;;;;;4.32;4.03;;;;;;;35.87;53.87;100437.66;5052752;28;65614;-39
2021/05/13 06:17:57;;;;;;;4.35;3.95;;;;;;;35.88;53.86;100425.66;5050659;28;70217;-38
2021/05/13 06:20:33;;;;;;;4.47;4.07;;;;;;;35.91;54.09;100427.88;5051326;28;66179;-38
2021/05/13 06:23:08;;;;;;;4.32;4.00;;;;;;;35.43;53.71;100341.66;5054587;28;70132;-38
2021/05/13 06:25:39;;;;;;;4.05;3.75;;;;;;;35.84;53.56;100397.28;5051835;28;66253;-38
2021/05/13 06:28:11;;;;;;;3.83;3.63;;;;;;;36.01;53.82;100414.25;5054265;28;70116;-38
2021/05/13 06:30:45;;;;;;;4.32;3.92;;;;;;;36.01;53.58;100397.88;5051572;28;65666;-38
2021/05/13 06:33:16;;;;;;;4.07;3.88;;;;;;;35.83;53.46;100359.31;5051685;28;69368;-37
2021/05/13 06:35:47;;;;;;;3.55;3.35;;;;;;;35.99;53.24;100367.28;5053164;28;65931;-38
2021/05/13 06:38:18;;;;;;;3.40;3.20;;;;;;;36.13;53.35;100375.03;5052966;28;70759;-38
2021/05/13 06:40:53;;;;;;;5.78;3.75;;;;;;;36.14;53.12;100366.56;5044071;28;65485;-38
2021/05/13 06:43:24;;;;;;;4.70;3.47;;;;;;;36.11;53.30;100371.72;5049454;28;70232;-39
2021/05/13 06:45:56;;;;;;;4.00;3.70;;;;;;;36.10;53.20;100367.38;5051915;28;64348;-38
2021/05/13 06:48:28;;;;;;;4.05;3.75;;;;;;;36.14;53.72;100360.31;5051794;28;69722;-38
2021/05/13 06:50:58;;;;;;;;;;;;;;;36.10;53.09;100353.72;5051625;28;65613;-39
2021/05/13 06:53:33;;;;;;;4.20;3.80;;;;;;;36.21;52.79;100344.47;5048438;28;69098;-39
2021/05/13 06:56:05;;;;;;;3.78;3.50;;;;;;;36.24;52.88;100343.91;5051127;28;65763;-39
2021/05/13 06:58:36;;;;;;;3.67;3.38;;;;;;;36.29;53.15;100343.13;5045643;28;70011;-38
2021/05/13 07:01:08;;;;;;;3.70;3.50;;;;;;;36.29;53.41;100343.94;5051577;28;64230;-38
2021/05/13 07:03:40;;;;;;;3.85;3.60;;;;;;;36.31;52.68;100339.03;5059863;28;70072;-39
2021/05/13 07:06:11;;;;;;;3.53;3.33;;;;;;;36.31;53.15;100322.66;5054894;28;65966;-39
2021/05/13 07:08:45;;;;;;;4.15;3.15;;;;;;;36.32;53.18;100321.53;5048665;28;70327;-38
2021/05/13 07:11:19;;;;;;;3.88;3.58;;;;;;;36.36;52.83;100319.09;5051272;28;66448;-38
2021/05/13 07:13:51;;;;;;;4.72;3.42;;;;;;;36.39;52.71;100324.03;5052361;28;69768;-40
2021/05/13 07:16:26;;;;;;;3.72;3.40;;;;;;;36.35;53.18;100333.84;5053072;28;65722;-39
2021/05/13 07:19:02;;;;;;;3.38;3.17;;;;;;;36.34;52.88;100327.56;5054219;28;70493;-38
2021/05/13 07:21:38;;;;;;;7.93;3.58;;;;;;;36.17;52.63;100310.59;5051318;28;65774;-39
2021/05/13 07:24:09;;;;;;;4.05;3.55;;;;;;;36.38;52.55;100333.28;5063375;28;69411;-38
2021/05/13 07:26:40;;;;;;;;;;;;;;;36.19;52.39;100313.88;5050590;28;65811;-39
2021/05/13 07:29:13;;;;;;;3.78;3.47;;;;;;;36.38;52.28;100322.38;5053000;28;68912;-38
2021/05/13 07:31:45;;;;;;;4.30;3.90;;;;;;;36.40;52.97;100326.47;5053645;28;66023;-39
2021/05/13 07:34:19;;;;;;;5.75;3.22;;;;;;;36.37;52.98;100309.81;5050806;28;70398;-38
2021/05/13 07:36:50;;;;;;;3.72;3.42;;;;;;;36.34;52.65;100300.25;5052366;28;65711;-38
2021/05/13 07:39:23;;;;;;;3.40;3.15;;;;;;;36.34;53.08;100307.63;5058455;28;70114;-38
2021/05/13 07:41:55;;;;;;;3.45;3.25;;;;;;;36.34;52.93;100304.91;5054971;28;66391;-37
2021/05/13 07:44:29;;;;;;;3.42;3.22;;;;;;;36.34;52.39;100289.31;5054850;28;68984;-38
2021/05/13 07:47:00;;;;;;;3.40;3.10;;;;;;;36.31;52.42;100289.06;5048387;28;66100;-39
2021/05/13 07:49:34;;;;;;;7.28;3.80;;;;;;;36.31;52.36;100283.59;5055680;28;69812;-39
2021/05/13 07:52:05;;;;;;;3.40;3.10;;;;;;;36.31;52.96;100286.31;5051285;28;66008;-38
2021/05/13 07:54:36;;;;;;;8.07;3.40;;;;;;;36.32;52.48;100283.31;5050321;28;69149;-38
2021/05/13 07:57:10;;;;;;;3.45;3.25;;;;;;;36.34;52.48;100285.78;5041632;28;66723;-39
2021/05/13 07:59:41;;;;;;;3.70;3.45;;;;;;;36.33;52.62;100293.16;5056974;28;70148;-39
2021/05/13 08:02:13;;;;;;;3.40;3.13;;;;;;;36.26;52.18;100287.13;5048959;28;66382;-38
2021/05/13 08:04:48;;;;;;;3.38;2.80;;;;;;;36.33;52.23;100286.84;5042756;28;70837;-39
2021/05/13 08:07:22;;;;;;;6.68;3.50;;;;;;;36.36;52.80;100284.41;5042714;28;65450;-39
2021/05/13 08:09:53;;;;;;;8.23;3.30;;;;;;;36.36;52.77;100287.16;5048454;28;70422;-39
2021/05/13 08:12:24;;;;;;;4.68;3.33;;;;;;;36.33;52.86;100284.97;5053875;28;65974;-38
2021/05/13 08:14:55;;;;;;;;;;;;;;;36.24;52.86;100281.94;5050952;28;68979;-39
2021/05/13 08:17:28;;;;;;;3.55;3.35;;;;;;;36.31;52.67;100281.69;5053421;28;66439;-39
2021/05/13 08:19:58;;;;;;;4.53;3.33;;;;;;;36.33;52.96;100290.44;5051263;28;69914;-39
2021/05/13 08:22:29;;;;;;;4.27;3.87;;;;;;;36.32;52.29;100291.50;5054708;28;65024;-39
2021/05/13 08:25:07;;;;;;;3.15;2.95;;;;;;;36.30;52.27;100296.41;5056021;28;69913;-40
2021/05/13 08:27:39;;;;;;;4.40;3.78;;;;;;;36.28;52.65;100295.88;5058462;28;65024;-40
2021/05/13 08:30:11;;;;;;;5.60;3.67;;;;;;;36.38;52.59;100306.78;5056342;28;70330;-39
2021/05/13 08:32:45;;;;;;;4.47;4.10;;;;;;;36.32;52.61;100307.88;5057124;28;66075;-39
2021/05/13 08:35:16;;;;;;;6.00;3.80;;;;;;;36.32;53.23;100313.34;5055428;28;70074;-39
2021/05/13 08:37:47;;;;;;;5.68;3.70;;;;;;;36.29;52.64;100302.97;5057355;28;65199;-38
2021/05/13 08:40:20;;;;;;;4.20;3.90;;;;;;;36.22;53.12;100302.44;5056334;28;70885;-38
2021/05/13 08:42:52;;;;;;;4.30;3.90;;;;;;;36.18;53.45;100295.84;5051610;28;66584;-38
2021/05/13 08:45:26;;;;;;;4.85;4.35;;;;;;;36.23;53.02;100304.06;5052803;28;69214;-39
2021/05/13 08:47:57;;;;;;;5.15;4.45;;;;;;;36.21;53.17;100295.31;5048728;28;65958;-41
2021/05/13 08:50:28;;;;;;;4.53;4.13;;;;;;;36.18;53.41;100295.84;5038991;28;70048;-39
2021/05/13 08:53:05;;;;;;;4.50;3.95;;;;;;;36.17;53.14;100294.22;5051027;28;65800;-40
2021/05/13 08:55:38;;;;;;;3.92;3.60;;;;;;;36.08;53.24;100296.66;5053586;28;70313;-39
2021/05/13 08:58:09;;;;;;;4.78;4.47;;;;;;;36.15;53.63;100318.25;5056476;28;66136;-38
2021/05/13 09:00:59;;;;;;;4.50;4.10;;;;;;;36.05;54.19;100323.63;5056158;28;70054;-39
2021/05/13 09:03:37;;;;;;;7.05;4.90;;;;;;;36.11;53.76;100328.03;5038271;28;65522;-38
2021/05/13 09:06:29;;;;;;;5.50;4.40;;;;;;;35.95;54.06;100292.50;5051218;28;70055;-39
2021/05/13 09:09:17;;;;;;;5.30;4.90;;;;;;;35.53;54.32;100247.06;5049656;28;65890;-38
2021/05/13 09:11:57;;;;;;;5.65;5.10;;;;;;;35.98;53.58;100308.34;5054415;28;70362;-39
2021/05/13 09:14:33;;;;;;;5.50;4.25;;;;;;;35.92;54.20;100298.50;5059640;28;66506;-40
2021/05/13 09:17:04;;;;;;;4.60;4.20;;;;;;;35.91;54.15;100290.56;5056219;28;70748;-39
2021/05/13 09:19:35;;;;;;;4.60;4.20;;;;;;;35.91;53.85;100305.06;5054208;28;65275;-38
2021/05/13 09:22:09;;;;;;;5.23;4.80;;;;;;;35.63;53.88;100250.94;5053645;28;69785;-41
2021/05/13 09:24:58;;;;;;;4.60;4.20;;;;;;;35.90;54.51;100308.88;5051464;28;66043;-38
2021/05/13 09:27:41;;;;;;;5.35;4.80;;;;;;;35.80;54.39;100285.09;5052196;28;69169;-38
2021/05/13 09:30:25;;;;;;;5.00;4.13;;;;;;;35.70;54.13;100284.25;5052005;28;64758;-39
2021/05/13 09:32:58;;;;;;;5.55;4.38;;;;;;;35.87;53.94;100305.84;5052146;28;69972;-39
2021/05/13 09:35:32;;;;;;;5.10;4.63;;;;;;;35.85;54.69;100313.47;5055303;28;65466;-38
2021/05/13 09:38:08;;;;;;;4.80;4.40;;;;;;;35.86;53.92;100318.69;5055461;28;69695;-39
2021/05/13 09:40:52;;;;;;;5.13;4.22;;;;;;;35.30;54.64;100223.78;5054737;28;65187;-39
2021/05/13 09:43:25;;;;;;;5.00;4.60;;;;;;;35.52;54.09;100253.59;5052816;28;69889;-39
2021/05/13 09:46:04;;;;;;;5.78;4.95;;;;;;;35.51;53.98;100248.41;5052660;28;67015;-39
2021/05/13 09:48:46;;;;;;;4.25;3.92;;;;;;;35.66;54.67;100285.84;5054414;28;70502;-39
2021/05/13 09:51:25;;;;;;;5.00;4.28;;;;;;;35.66;54.86;100296.75;5052769;28;66355;-39
2021/05/13 09:54:06;;;;;;;4.50;4.10;;;;;;;35.69;54.84;100315.31;5054592;28;70084;-39
2021/05/13 09:56:45;;;;;;;4.03;3.72;;;;;;;35.69;54.39;100309.88;5052686;28;67015;-39
2021/05/13 09:59:38;;;;;;;7.68;3.50;;;;;;;35.61;54.45;100313.09;5052541;28;69449;-40
2021/05/13 10:02:10;;;;;;;3.95;3.65;;;;;;;35.60;54.55;100303.28;5048067;28;65984;-39
2021/05/13 10:04:41;;;;;;;4.22;3.92;;;;;;;35.62;54.32;100299.22;5052470;28;69564;-39
2021/05/13 10:07:12;;;;;;;4.65;3.70;;;;;;;35.62;54.39;100309.31;5054109;28;65443;-39
2021/05/13 10:09:46;;;;;;;4.03;3.50;;;;;;;35.49;54.77;100289.56;5053838;28;69631;-39
2021/05/13 10:12:31;;;;;;;6.45;3.85;;;;;;;35.55;54.73;100290.41;5051172;28;65543;-38
2021/05/13 10:15:03;;;;;;;4.63;3.38;;;;;;;35.46;54.59;100292.84;5053727;28;69256;-38
2021/05/13 10:17:37;;;;;;;4.35;3.92;;;;;;;35.38;54.56;100282.44;5051915;28;66807;-39
2021/05/13 10:20:10;;;;;;;4.50;3.13;;;;;;;35.50;54.45;100306.78;5050678;28;69577;-40
2021/05/13 10:22:44;;;;;;;3.33;3.13;;;;;;;35.41;54.83;100297.44;5051514;28;66205;-39
2021/05/13 10:25:20;;;;;;;3.60;3.33;;;;;;;35.44;54.92;100308.66;5048714;28;69748;-38
2021/05/13 10:27:56;;;;;;;3.80;3.50;;;;;;;35.45;54.65;100299.38;5049279;28;64419;-39
2021/05/13 10:30:30;;;;;;;3.83;3.53;;;;;;;35.24;54.36;100270.38;5046867;28;70728;-38
2021/05/13 10:33:15;;;;;;;3.47;3.17;;;;;;;35.45;54.74;100301.28;5050932;28;67787;-40
2021/05/13 10:36:06;;;;;;;3.53;3.20;;;;;;;35.37;55.26;100297.16;5049521;28;69998;-39
2021/05/13 10:38:46;;;;;;;3.50;3.20;;;;;;;34.89;55.08;100203.66;5053871;28;65213;-39
2021/05/13 10:41:42;;;;;;;3.60;3.30;;;;;;;35.30;55.00;100288.38;5054285;28;69821;-39
2021/05/13 10:44:12;;;;;;;3.55;3.25;;;;;;;35.38;54.78;100298.78;5052751;28;66078;-39
2021/05/13 10:47:00;;;;;;;3.42;3.15;;;;;;;35.33;54.76;100304.25;5051488;28;69697;-40
2021/05/13 10:49:45;;;;;;;5.70;2.95;;;;;;;35.19;55.08;100287.53;5054871;28;64089;-39
2021/05/13 10:52:34;;;;;;;3.72;3.42;;;;;;;35.22;55.16;100305.28;5050406;28;69030;-40
2021/05/13 10:55:07;;;;;;;7.85;3.17;;;;;;;34.99;54.94;100269.09;5052268;28;65912;-39
2021/05/13 10:57:53;;;;;;;2.80;2.60;;;;;;;35.28;54.88;100321.38;5050889;28;70102;-39
2021/05/13 11:00:25;;;;;;;6.97;3.50;;;;;;;35.22;55.22;100321.63;5057544;28;66010;-39
2021/05/13 11:02:56;;;;;;;3.63;3.33;;;;;;;35.25;54.96;100342.91;5051800;28;69926;-40
2021/05/13 11:05:47;;;;;;;4.38;3.30;;;;;;;35.23;55.23;100348.63;5058278;28;65167;-39
2021/05/13 11:08:17;;;;;;;7.32;3.35;;;;;;;35.19;55.28;100361.16;5053743;28;70283;-39
2021/05/13 11:10:49;;;;;;;;;;;;;;;35.06;55.53;100351.50;5057844;28;66377;-39
2021/05/13 11:13:20;;;;;;;15.55;4.75;;;;;;;35.17;55.99;100360.56;5055422;28;69024;-40
2021/05/13 11:15:53;;;;;;;12.48;4.20;;;;;;;35.12;56.46;100372.25;5054766;28;66698;-41
2021/05/13 11:18:27;;;;;;;6.70;3.90;;;;;;;35.12;56.04;100388.63;5053003;28;70087;-41
2021/05/13 11:20:59;;;;;;;6.93;4.43;;;;;;;35.12;56.49;100388.63;5052036;28;66277;-39
2021/05/13 11:23:31;;;;;;;;;;;;;;;35.04;56.50;100391.78;5057785;28;69848;-39
2021/05/13 11:26:10;;;;;;;8.57;4.13;;;;;;;35.06;57.20;100395.13;5056023;28;65356;-39
2021/05/13 11:28:46;;;;;;;8.52;4.03;;;;;;;34.47;56.25;100305.19;5039233;28;69134;-39
2021/05/13 11:31:22;;;;;;;6.20;3.67;;;;;;;35.01;55.02;100392.31;5056140;28;66450;-40
2021/05/13 11:33:56;;;;;;;4.40;4.00;;;;;;;34.92;54.53;100402.88;5052625;28;70175;-41
2021/05/13 11:36:30;;;;;;;7.40;3.65;;;;;;;34.85;54.62;100415.91;5055204;28;65807;-42
2021/05/13 11:39:08;;;;;;;9.88;3.88;;;;;;;34.81;53.48;100411.22;5053979;28;70098;-40
2021/05/13 11:41:40;;;;;;;5.25;3.92;;;;;;;34.79;52.69;100411.47;5058381;28;65932;-41
2021/05/13 11:44:13;;;;;;;5.95;3.50;;;;;;;34.63;52.07;100413.25;5054642;28;69773;-40
2021/05/13 11:46:51;;;;;;;4.28;3.55;;;;;;;34.59;51.84;100409.38;5050754;28;66234;-39
2021/05/13 11:49:22;;;;;;;10.02;3.97;;;;;;;34.21;52.34;100348.53;5055659;28;69933;-40
2021/05/13 11:51:53;;;;;;;3.80;3.50;;;;;;;34.49;51.54;100403.78;5056227;28;66963;-41
2021/05/13 11:54:24;;;;;;;5.00;3.33;;;;;;;34.47;51.09;100405.97;5055751;28;69358;-41
2021/05/13 11:56:54;;;;;;;14.90;3.63;;;;;;;34.37;51.23;100408.56;5058377;28;66450;-40
2021/05/13 11:59:25;;;;;;;7.57;3.85;;;;;;;34.37;51.14;100398.50;5058176;28;69950;-39
2021/05/13 12:02:01;;;;;;;9.63;5.70;;;;;;;34.33;51.20;100399.28;5059827;28;65561;-41